Time;durP1;ratioP1;P1;durP2;ratioP2;P2;SDS_P1;SDS_P2;PMS_P1;PMS_P2;Temp;Humidity;BMP_temperature;BMP_pressure;BME280_temperature;BME280_humidity;BME280_pressure;Samples;Min_cycle;Max_cycle;Signal;HPM_P1;HPM_P2
2022/12/02 00:00:15;;;;;;;33.37;20.70;;;;;;;8.60;60.81;97826.78;5029657;28;20427;-70
2022/12/02 00:02:41;;;;;;;33.93;19.77;;;;;;;8.59;60.58;97822.50;5036851;28;20269;-69
2022/12/02 00:05:09;;;;;;;32.53;20.00;;;;;;;8.62;60.37;97819.66;5027083;28;20898;-69
2022/12/02 00:07:35;;;;;;;32.30;20.67;;;;;;;8.61;60.90;97815.38;5034588;28;20226;-69
2022/12/02 00:10:01;;;;;;;35.70;20.70;;;;;;;8.60;60.41;97816.31;5028998;28;20429;-69
2022/12/02 00:12:27;;;;;;;33.50;21.53;;;;;;;8.61;60.39;97812.75;5038688;28;20460;-69
2022/12/02 00:14:59;;;;;;;35.80;21.20;;;;;;;8.58;60.67;97813.84;5037494;28;20207;-69
2022/12/02 00:17:25;;;;;;;39.03;21.80;;;;;;;8.58;60.32;97808.63;5023067;28;20533;-69
2022/12/02 00:19:51;;;;;;;39.07;20.00;;;;;;;8.55;60.51;97806.25;5031868;28;20546;-69
2022/12/02 00:22:17;;;;;;;37.53;20.30;;;;;;;8.56;60.36;97807.09;5049497;28;20667;-69
2022/12/02 00:24:43;;;;;;;35.57;20.40;;;;;;;8.57;60.93;97806.13;5043593;28;20567;-69
2022/12/02 00:27:09;;;;;;;36.23;21.10;;;;;;;8.61;60.58;97797.09;5020321;28;20208;-69
2022/12/02 00:29:34;;;;;;;34.83;20.53;;;;;;;8.53;60.58;97800.31;5045065;28;20194;-68
2022/12/02 00:32:00;;;;;;;35.03;21.13;;;;;;;8.56;60.09;97799.25;5027470;28;20593;-68
2022/12/02 00:34:25;;;;;;;33.93;19.67;;;;;;;8.61;60.69;97791.84;5055350;28;20207;-68
2022/12/02 00:36:50;;;;;;;32.20;20.73;;;;;;;8.55;60.56;97790.56;5030253;28;20237;-68
2022/12/02 00:39:16;;;;;;;36.23;21.00;;;;;;;8.59;60.81;97793.75;5036692;28;20805;-68
2022/12/02 00:41:42;;;;;;;33.90;21.10;;;;;;;8.53;60.71;97789.88;5031009;28;20187;-68
2022/12/02 00:46:51;;;;;;;35.70;20.43;;;;;;;8.59;60.56;97781.53;5031920;28;20208;-68
2022/12/02 00:49:17;;;;;;;32.80;20.83;;;;;;;8.56;60.40;97783.59;5035599;28;20428;-68
2022/12/02 00:51:43;;;;;;;37.70;20.77;;;;;;;8.57;60.31;97774.75;5032905;28;20183;-68
2022/12/02 00:54:10;;;;;;;36.83;21.47;;;;;;;8.58;60.57;97776.41;5041432;28;20215;-68
2022/12/02 00:56:35;;;;;;;35.87;20.60;;;;;;;8.55;60.61;97777.50;5040743;28;20453;-67
2022/12/02 00:59:02;;;;;;;35.80;21.40;;;;;;;8.54;60.21;97775.84;5027759;28;20438;-68
2022/12/02 01:01:27;;;;;;;32.63;20.40;;;;;;;8.58;61.14;97774.66;5041155;28;20236;-69
2022/12/02 01:03:53;;;;;;;32.30;19.70;;;;;;;8.63;60.49;97766.44;5053257;28;20418;-69
2022/12/02 01:06:19;;;;;;;34.40;20.73;;;;;;;8.61;60.52;97765.72;5029041;28;20297;-68
2022/12/02 01:08:44;;;;;;;42.67;20.63;;;;;;;8.67;60.42;97765.25;5024457;28;20188;-68
2022/12/02 01:11:10;;;;;;;32.73;20.30;;;;;;;8.61;60.31;97765.72;5040371;28;20194;-68
2022/12/02 01:13:36;;;;;;;32.93;19.70;;;;;;;8.59;60.50;97768.47;5041542;28;20210;-68
2022/12/02 01:16:02;;;;;;;34.50;20.40;;;;;;;8.55;60.12;97763.63;5020704;28;20823;-68
2022/12/02 01:18:27;;;;;;;38.43;20.03;;;;;;;8.54;60.75;97759.38;5028285;28;20187;-68
2022/12/02 01:20:53;;;;;;;36.63;20.37;;;;;;;8.56;60.45;97760.06;5023050;28;21065;-68
2022/12/02 01:23:18;;;;;;;32.80;19.50;;;;;;;8.54;60.25;97764.59;5035651;28;20269;-68
2022/12/02 01:25:44;;;;;;;40.20;22.40;;;;;;;8.57;60.38;97765.16;5032120;28;20207;-68
2022/12/02 01:28:09;;;;;;;35.07;21.20;;;;;;;8.55;60.39;97755.78;5040233;28;20183;-67
2022/12/02 01:30:35;;;;;;;35.60;21.10;;;;;;;8.55;60.77;97758.41;5038319;28;20282;-67
2022/12/02 01:33:00;;;;;;;33.67;20.60;;;;;;;8.53;60.07;97753.28;5021207;28;20227;-70
2022/12/02 01:35:26;;;;;;;40.00;21.33;;;;;;;8.56;60.68;97754.84;5042831;28;20179;-69
2022/12/02 01:37:51;;;;;;;47.77;21.33;;;;;;;8.54;60.38;97759.38;5003492;28;20176;-70
2022/12/02 01:40:18;;;;;;;32.07;20.20;;;;;;;8.52;60.57;97753.44;5028683;28;20267;-69
2022/12/02 01:42:44;;;;;;;32.73;20.77;;;;;;;8.56;60.35;97755.66;5015228;28;20538;-70
2022/12/02 01:45:10;;;;;;;36.40;21.13;;;;;;;8.53;60.56;97760.31;5036918;28;20442;-70
2022/12/02 01:47:36;;;;;;;36.43;21.30;;;;;;;8.51;60.38;97749.97;5007552;28;20529;-69
2022/12/02 01:50:03;;;;;;;37.50;19.97;;;;;;;8.52;60.82;97758.66;5027103;28;20192;-69
2022/12/02 01:52:29;;;;;;;38.80;21.47;;;;;;;8.54;60.79;97754.13;5025063;28;20456;-69
2022/12/02 01:54:54;;;;;;;35.10;21.13;;;;;;;8.54;60.26;97756.75;5035169;28;20465;-70
2022/12/02 01:57:25;;;;;;;31.80;19.60;;;;;;;8.53;60.54;97747.25;5035667;28;20215;-69
2022/12/02 01:59:51;;;;;;;32.57;20.27;;;;;;;8.56;60.64;97747.81;5027322;28;20246;-69
2022/12/02 02:02:26;;;;;;;35.90;21.20;;;;;;;8.54;60.20;97746.31;5026602;28;20423;-70
2022/12/02 02:04:53;;;;;;;32.03;19.80;;;;;;;8.54;60.96;97736.66;5034581;28;20191;-69
2022/12/02 02:07:18;;;;;;;33.80;20.53;;;;;;;8.48;60.67;97741.56;5027196;28;20794;-69
2022/12/02 02:09:44;;;;;;;38.70;23.10;;;;;;;8.44;60.99;97739.16;5029148;28;20431;-68
2022/12/02 02:12:09;;;;;;;33.30;20.67;;;;;;;8.44;61.23;97736.53;5033874;28;20181;-69
2022/12/02 02:14:35;;;;;;;44.60;22.60;;;;;;;8.50;60.93;97731.81;5041757;28;20278;-70
2022/12/02 02:17:00;;;;;;;32.70;19.90;;;;;;;8.50;60.26;97737.03;5027596;28;20582;-69
2022/12/02 02:19:26;;;;;;;36.60;22.10;;;;;;;8.53;60.66;97734.19;5042237;28;20183;-70
2022/12/02 02:21:53;;;;;;;38.07;21.40;;;;;;;8.53;60.57;97731.56;5026114;28;20195;-69
2022/12/02 02:24:18;;;;;;;38.83;21.37;;;;;;;8.55;60.55;97737.50;5042995;28;20188;-68
2022/12/02 02:26:44;;;;;;;34.90;20.10;;;;;;;8.53;60.51;97737.63;5025964;28;20451;-69
2022/12/02 02:29:09;;;;;;;35.30;21.20;;;;;;;8.57;61.17;97743.41;5044494;28;20272;-69
2022/12/02 02:31:35;;;;;;;31.27;19.90;;;;;;;8.53;60.92;97739.41;5033223;28;20610;-69
2022/12/02 02:34:00;;;;;;;37.87;20.70;;;;;;;8.57;60.36;97733.81;5027451;28;20215;-68
2022/12/02 02:36:26;;;;;;;40.40;21.70;;;;;;;8.52;60.56;97737.75;5036729;28;20203;-68
2022/12/02 02:38:52;;;;;;;37.43;21.77;;;;;;;8.50;60.55;97727.44;5040124;28;20224;-68
2022/12/02 02:41:17;;;;;;;37.07;20.73;;;;;;;8.52;60.48;97733.34;5031665;28;20193;-68
2022/12/02 02:43:43;;;;;;;34.13;20.30;;;;;;;8.46;61.01;97734.66;5028415;28;20492;-67
2022/12/02 02:46:09;;;;;;;36.90;22.23;;;;;;;8.44;60.66;97728.72;5040812;28;20211;-68
2022/12/02 02:48:35;;;;;;;34.30;19.80;;;;;;;8.50;60.92;97729.22;5031269;28;20183;-69
2022/12/02 02:51:00;;;;;;;35.10;20.67;;;;;;;8.51;60.39;97715.19;5034193;28;20187;-69
2022/12/02 02:53:26;;;;;;;33.83;20.70;;;;;;;8.49;60.86;97710.09;5039373;28;20461;-68
2022/12/02 02:55:52;;;;;;;42.90;21.93;;;;;;;8.48;60.98;97716.28;5046996;28;20213;-67
2022/12/02 02:58:23;;;;;;;35.73;21.30;;;;;;;8.35;61.30;97710.38;5037864;28;20607;-69
2022/12/02 03:01:09;;;;;;;33.40;20.33;;;;;;;8.48;61.75;97710.22;5041069;28;20188;-69
2022/12/02 03:03:38;;;;;;;42.23;21.00;;;;;;;8.45;60.66;97714.69;5034216;28;20686;-68
2022/12/02 03:06:04;;;;;;;34.67;20.93;;;;;;;8.46;61.52;97708.53;5038704;28;20445;-67
2022/12/02 03:08:31;;;;;;;32.33;20.80;;;;;;;8.52;60.38;97703.78;5030123;28;20438;-69
2022/12/02 03:10:59;;;;;;;34.83;20.90;;;;;;;8.57;60.47;97706.84;5036681;28;20786;-67
2022/12/02 03:13:24;;;;;;;35.37;21.37;;;;;;;8.56;60.41;97713.84;5034591;28;20453;-70
2022/12/02 03:15:50;;;;;;;35.40;20.30;;;;;;;8.59;60.81;97707.53;5039815;28;20457;-70
2022/12/02 03:18:16;;;;;;;35.83;20.80;;;;;;;8.53;60.81;97702.84;5041650;28;20186;-69
2022/12/02 03:20:41;;;;;;;36.87;21.10;;;;;;;8.49;61.22;97699.66;5036900;28;20192;-71
2022/12/02 03:23:07;;;;;;;39.60;21.37;;;;;;;8.52;60.80;97695.94;5034912;28;20185;-68
2022/12/02 03:25:33;;;;;;;36.27;21.20;;;;;;;8.47;60.46;97696.31;5038752;28;20182;-69
2022/12/02 03:27:58;;;;;;;33.00;20.67;;;;;;;8.52;60.92;97693.34;5027571;28;20223;-67
2022/12/02 03:30:24;;;;;;;35.33;21.30;;;;;;;8.49;60.77;97704.03;5043500;28;20630;-68
2022/12/02 03:32:49;;;;;;;36.17;20.60;;;;;;;8.47;61.01;97704.13;5044043;28;20270;-68
2022/12/02 03:35:15;;;;;;;34.87;21.13;;;;;;;8.52;60.71;97701.19;5040667;28;20209;-69
2022/12/02 03:37:40;;;;;;;32.63;20.73;;;;;;;8.54;60.51;97696.66;5038686;28;20667;-69
2022/12/02 03:40:07;;;;;;;36.30;21.20;;;;;;;8.53;61.05;97697.59;5022344;28;20196;-68
2022/12/02 03:42:32;;;;;;;34.33;20.53;;;;;;;8.44;60.73;97702.59;5031936;28;20187;-68
2022/12/02 03:44:58;;;;;;;35.37;20.10;;;;;;;8.49;60.96;97704.88;5027410;28;20423;-68
2022/12/02 03:47:23;;;;;;;31.77;19.83;;;;;;;8.48;60.55;97699.75;5039384;28;20278;-67
2022/12/02 03:49:48;;;;;;;31.90;20.13;;;;;;;8.53;61.11;97700.22;5043040;28;20612;-69
2022/12/02 03:52:14;;;;;;;33.40;20.43;;;;;;;8.51;60.69;97696.91;5025493;28;20192;-69
2022/12/02 03:54:39;;;;;;;34.03;20.90;;;;;;;8.52;60.80;97695.94;5031642;28;20195;-66
2022/12/02 03:57:06;;;;;;;34.30;20.60;;;;;;;8.50;61.15;97690.03;5023550;28;20548;-68
2022/12/02 03:59:31;;;;;;;34.57;20.97;;;;;;;8.48;60.93;97691.94;5036289;28;20183;-67
2022/12/02 04:01:57;;;;;;;33.83;20.00;;;;;;;8.43;60.85;97687.91;5023943;28;20802;-67
2022/12/02 04:04:22;;;;;;;41.37;21.20;;;;;;;8.37;61.03;97691.00;5035453;28;20176;-66
2022/12/02 04:06:48;;;;;;;33.33;19.23;;;;;;;8.45;60.84;97685.97;5034032;28;20630;-68
2022/12/02 04:09:13;;;;;;;36.33;21.70;;;;;;;8.24;61.26;97690.34;5025901;28;20184;-69
2022/12/02 04:11:39;;;;;;;36.20;19.60;;;;;;;8.28;61.69;97682.13;5034934;28;20639;-69
2022/12/02 04:14:04;;;;;;;33.03;20.30;;;;;;;8.35;60.95;97687.69;5015053;28;20216;-69
2022/12/02 04:16:30;;;;;;;34.93;21.07;;;;;;;8.40;61.07;97679.47;5039724;28;20705;-68
2022/12/02 04:18:55;;;;;;;33.60;20.27;;;;;;;8.45;60.73;97685.97;5024251;28;20188;-69
2022/12/02 04:21:23;;;;;;;33.17;20.20;;;;;;;8.50;61.18;97669.13;5040426;28;20187;-67
2022/12/02 04:23:50;;;;;;;33.50;19.77;;;;;;;8.38;60.82;97677.00;5044368;28;20193;-68
2022/12/02 04:26:16;;;;;;;34.13;21.03;;;;;;;8.39;59.98;97670.81;5028126;28;20503;-67
2022/12/02 04:28:41;;;;;;;36.20;21.23;;;;;;;8.38;61.34;97663.94;5038437;28;20425;-69
2022/12/02 04:31:07;;;;;;;36.13;19.83;;;;;;;8.41;61.31;97671.53;5031502;28;20259;-69
2022/12/02 04:33:32;;;;;;;34.67;20.60;;;;;;;8.42;61.24;97662.72;5039417;28;20294;-67
2022/12/02 04:35:58;;;;;;;37.30;20.53;;;;;;;8.41;61.23;97668.91;5034603;28;20203;-69
2022/12/02 04:38:23;;;;;;;39.33;21.70;;;;;;;8.43;61.83;97663.53;5038506;28;20737;-70
2022/12/02 04:40:48;;;;;;;33.60;19.80;;;;;;;8.48;60.73;97664.03;5027849;28;20275;-70
2022/12/02 04:43:14;;;;;;;37.37;19.93;;;;;;;8.53;60.72;97658.41;5007723;28;20198;-68
2022/12/02 04:45:39;;;;;;;31.17;19.90;;;;;;;8.53;61.17;97655.81;5025242;28;20194;-68
2022/12/02 04:48:05;;;;;;;35.63;20.63;;;;;;;8.51;61.25;97655.09;5029629;28;20195;-68
2022/12/02 04:50:30;;;;;;;35.77;21.03;;;;;;;8.43;61.02;97647.88;5036573;28;20218;-68
2022/12/02 04:52:56;;;;;;;39.13;21.33;;;;;;;8.49;61.56;97651.78;5028025;28;20192;-69
2022/12/02 04:55:21;;;;;;;47.33;20.73;;;;;;;8.53;60.51;97653.19;5040617;28;20311;-68
2022/12/02 04:57:47;;;;;;;41.07;20.57;;;;;;;8.55;61.30;97651.28;5036716;28;20654;-68
2022/12/02 05:00:13;;;;;;;33.50;21.70;;;;;;;8.55;60.20;97651.28;5024601;28;20311;-68
2022/12/02 05:02:38;;;;;;;35.90;19.47;;;;;;;8.54;61.05;97649.63;5008806;28;20190;-70
2022/12/02 05:05:04;;;;;;;34.23;20.70;;;;;;;8.53;61.04;97648.78;5026513;28;20513;-70
2022/12/02 05:07:29;;;;;;;37.27;21.00;;;;;;;8.53;61.18;97653.19;5034624;28;20207;-69
2022/12/02 05:09:55;;;;;;;33.27;20.00;;;;;;;8.49;61.16;97651.78;5033545;28;20183;-68
2022/12/02 05:12:22;;;;;;;33.97;20.67;;;;;;;8.50;61.13;97653.44;5028233;28;20188;-68
2022/12/02 05:14:48;;;;;;;34.53;21.07;;;;;;;8.43;60.94;97653.09;5031735;28;20211;-69
2022/12/02 05:17:14;;;;;;;33.90;20.77;;;;;;;8.44;60.93;97654.75;4990603;28;20458;-67
2022/12/02 05:19:39;;;;;;;36.37;20.60;;;;;;;8.39;61.00;97656.91;5021926;28;20431;-69
2022/12/02 05:22:05;;;;;;;34.67;20.50;;;;;;;8.40;61.36;97654.19;5007133;28;20195;-68
2022/12/02 05:24:30;;;;;;;36.83;20.10;;;;;;;8.39;61.33;97655.16;5047770;28;20180;-68
2022/12/02 05:26:56;;;;;;;36.07;21.47;;;;;;;8.41;60.92;97653.22;5043170;28;20207;-67
2022/12/02 05:29:21;;;;;;;37.43;19.80;;;;;;;8.43;61.27;97653.94;5043668;28;20203;-67
2022/12/02 05:31:47;;;;;;;42.07;23.83;;;;;;;8.39;61.34;97655.16;5030475;28;20186;-69
2022/12/02 05:34:12;;;;;;;35.63;22.43;;;;;;;8.40;61.25;97654.19;5037550;28;20690;-67
2022/12/02 05:36:38;;;;;;;37.57;21.13;;;;;;;8.42;61.42;97647.06;5019913;28;20203;-64
2022/12/02 05:39:03;;;;;;;38.80;21.80;;;;;;;8.41;61.27;97647.16;5044526;28;20195;-65
2022/12/02 05:41:29;;;;;;;36.70;21.50;;;;;;;8.39;61.39;97642.09;5036369;28;20651;-70
2022/12/02 05:44:15;;;;;;;39.63;21.50;;;;;;;8.40;60.84;97651.56;5040600;28;20275;-68
2022/12/02 05:46:41;;;;;;;42.13;21.80;;;;;;;8.35;61.26;97651.13;5042260;28;20260;-69
2022/12/02 05:49:15;;;;;;;38.00;21.50;;;;;;;8.33;61.09;97650.41;5040334;28;20438;-68
2022/12/02 05:51:40;;;;;;;42.97;22.20;;;;;;;8.31;61.56;97652.34;5040075;28;20269;-69
2022/12/02 05:54:08;;;;;;;37.43;21.30;;;;;;;8.25;61.56;97650.22;5042734;28;20982;-68
2022/12/02 05:56:34;;;;;;;40.53;21.73;;;;;;;8.31;62.37;97649.75;5035087;28;20576;-68
2022/12/02 05:59:03;;;;;;;36.10;22.03;;;;;;;8.33;61.89;97652.22;5043414;28;20996;-68
2022/12/02 06:01:37;;;;;;;38.70;22.00;;;;;;;8.27;61.50;97648.31;5050615;28;20425;-68
2022/12/02 06:04:07;;;;;;;38.20;21.57;;;;;;;8.29;61.99;97647.22;5040288;28;20434;-67
2022/12/02 06:06:34;;;;;;;36.10;21.30;;;;;;;8.33;61.85;97647.81;5029586;28;20457;-69
2022/12/02 06:08:59;;;;;;;38.80;20.70;;;;;;;8.30;61.73;97648.91;5038022;28;20438;-70
2022/12/02 06:11:29;;;;;;;35.50;20.27;;;;;;;8.33;62.15;97653.03;5026011;28;20483;-70
2022/12/02 06:14:00;;;;;;;44.87;19.83;;;;;;;8.33;61.29;97652.22;5025314;28;20613;-68
2022/12/02 06:16:28;;;;;;;38.50;20.90;;;;;;;8.35;61.21;97650.31;5016174;28;20534;-70
2022/12/02 06:18:54;;;;;;;39.47;20.90;;;;;;;8.36;61.42;97647.56;5034728;28;20462;-70
2022/12/02 06:21:20;;;;;;;36.30;19.63;;;;;;;8.36;61.23;97647.56;5037157;28;20449;-70
2022/12/02 06:23:48;;;;;;;35.30;19.43;;;;;;;8.29;61.39;97643.81;5037452;28;20183;-69
2022/12/02 06:26:15;;;;;;;34.33;18.90;;;;;;;8.30;61.51;97638.44;5035594;28;20446;-71
2022/12/02 06:28:43;;;;;;;32.57;18.67;;;;;;;8.31;61.91;97641.91;5047423;28;20429;-69
2022/12/02 06:31:15;;;;;;;33.40;18.77;;;;;;;8.33;61.54;97632.13;5043272;28;20870;-69
2022/12/02 06:33:41;;;;;;;35.20;20.27;;;;;;;8.36;61.57;97631.88;5049299;28;20469;-70
2022/12/02 06:36:33;;;;;;;29.53;18.40;;;;;;;8.36;61.74;97628.47;5027992;28;20453;-70
2022/12/02 06:39:08;;;;;;;27.40;16.53;;;;;;;8.28;61.30;97635.13;5033638;28;20440;-70
2022/12/02 06:41:36;;;;;;;29.60;17.90;;;;;;;8.29;61.07;97638.59;5027215;28;20580;-70
2022/12/02 06:47:28;;;;;;;30.37;17.37;;;;;;;8.23;61.72;97632.09;5020562;28;20442;-70
2022/12/02 06:49:53;;;;;;;28.80;16.83;;;;;;;8.23;61.92;97626.88;5017624;28;20439;-69
2022/12/02 06:52:21;;;;;;;27.60;15.87;;;;;;;8.29;60.96;97638.59;5025949;28;20507;-70
2022/12/02 06:54:46;;;;;;;28.70;15.43;;;;;;;8.29;61.17;97635.97;5037426;28;20249;-71
2022/12/02 06:57:15;;;;;;;28.27;15.23;;;;;;;8.23;61.28;97623.41;5027549;28;20450;-69
2022/12/02 06:59:43;;;;;;;27.20;15.17;;;;;;;8.29;61.12;97630.75;5025196;28;20191;-70
2022/12/02 07:02:28;;;;;;;28.33;16.30;;;;;;;8.31;61.76;97636.69;5022863;28;20869;-69
2022/12/02 07:04:54;;;;;;;24.43;15.27;;;;;;;8.35;61.87;97635.44;5014848;28;20564;-69
2022/12/02 07:07:30;;;;;;;24.10;14.70;;;;;;;8.33;61.54;97631.31;5029184;28;20451;-70
2022/12/02 07:09:58;;;;;;;29.07;16.83;;;;;;;8.28;61.61;97639.53;5030488;28;20191;-70
2022/12/02 07:12:30;;;;;;;26.37;14.33;;;;;;;8.30;62.01;97635.84;5033217;28;20519;-70
2022/12/02 07:14:57;;;;;;;25.80;15.87;;;;;;;8.32;61.33;97637.50;5031086;28;20461;-70
2022/12/02 07:17:35;;;;;;;31.53;17.80;;;;;;;8.35;61.80;97639.84;5029729;28;20443;-69
2022/12/02 07:20:10;;;;;;;25.20;16.40;;;;;;;8.31;62.02;97636.69;5032072;28;20800;-70
2022/12/02 07:22:46;;;;;;;26.43;15.00;;;;;;;8.28;61.46;97635.13;5027935;28;20462;-70
2022/12/02 07:25:15;;;;;;;28.73;17.40;;;;;;;8.29;62.02;97641.19;5032822;28;20487;-70
2022/12/02 07:27:43;;;;;;;31.67;17.10;;;;;;;8.32;62.15;97643.53;5032546;28;20462;-71
2022/12/02 07:30:32;;;;;;;29.93;16.53;;;;;;;8.21;61.66;97639.22;5032833;28;20430;-70
2022/12/02 07:32:58;;;;;;;34.50;16.50;;;;;;;8.29;61.82;97641.19;5032750;28;20439;-70
2022/12/02 07:35:24;;;;;;;29.50;17.13;;;;;;;8.29;61.87;97638.59;5031477;28;20470;-71
2022/12/02 07:37:50;;;;;;;31.77;17.83;;;;;;;8.27;61.25;97637.88;5038401;28;20685;-72
2022/12/02 07:40:16;;;;;;;61.47;34.13;;;;;;;8.27;61.90;97643.09;5022805;28;20230;-71
2022/12/02 07:42:42;;;;;;;74.00;42.90;;;;;;;8.40;63.83;97638.50;5042645;28;20182;-70
2022/12/02 07:45:12;;;;;;;59.67;34.57;;;;;;;8.53;63.50;97640.94;5025365;28;20795;-69
2022/12/02 07:47:38;;;;;;;41.77;23.47;;;;;;;8.62;62.81;97644.56;5020700;28;20457;-71
2022/12/02 07:50:04;;;;;;;39.17;21.73;;;;;;;8.68;62.86;97638.00;5019243;28;20427;-69
2022/12/02 07:52:30;;;;;;;46.70;20.70;;;;;;;8.72;62.58;97635.00;5019833;28;20211;-70
2022/12/02 07:54:55;;;;;;;38.20;21.00;;;;;;;8.76;62.13;97639.03;5030558;28;20895;-70
2022/12/02 07:57:21;;;;;;;41.30;20.20;;;;;;;8.75;61.54;97645.19;5025660;28;20204;-70
2022/12/02 07:59:47;;;;;;;40.33;21.40;;;;;;;8.74;61.83;97637.50;5025469;28;20196;-70
2022/12/02 08:02:13;;;;;;;37.33;20.50;;;;;;;8.74;61.49;97637.50;5012021;28;20791;-70
2022/12/02 08:04:38;;;;;;;39.23;21.13;;;;;;;8.71;61.79;97638.56;5020821;28;20251;-70
2022/12/02 08:07:04;;;;;;;40.57;20.97;;;;;;;8.74;61.60;97645.34;5023813;28;20208;-70
2022/12/02 08:09:29;;;;;;;35.60;21.13;;;;;;;8.69;61.10;97640.50;5023406;28;20191;-70
2022/12/02 08:11:54;;;;;;;43.10;21.90;;;;;;;8.66;61.38;97643.38;5030511;28;20237;-69
2022/12/02 08:14:20;;;;;;;40.93;21.60;;;;;;;8.66;61.41;97638.16;5026552;28;20216;-70
2022/12/02 08:16:45;;;;;;;39.43;21.97;;;;;;;8.59;60.99;97643.06;5019644;28;20273;-71
2022/12/02 08:19:11;;;;;;;39.60;21.40;;;;;;;8.56;61.78;97642.50;5025801;28;20367;-70
2022/12/02 08:21:36;;;;;;;39.57;21.40;;;;;;;8.53;61.76;97632.28;5021440;28;20188;-71
2022/12/02 08:24:02;;;;;;;40.73;21.90;;;;;;;8.57;61.80;97639.75;5031906;28;20186;-70
2022/12/02 08:26:28;;;;;;;44.57;23.40;;;;;;;8.56;61.72;97638.09;5024009;28;20622;-70
2022/12/02 08:28:53;;;;;;;39.13;21.33;;;;;;;8.54;61.35;97639.19;5031423;28;20458;-69
2022/12/02 08:31:19;;;;;;;55.30;27.57;;;;;;;8.53;62.14;97633.09;5030798;28;20187;-70
2022/12/02 08:33:44;;;;;;;51.67;26.90;;;;;;;8.51;62.52;97629.78;5030569;28;20627;-70
2022/12/02 08:36:09;;;;;;;62.60;34.37;;;;;;;8.56;62.19;97629.44;5030500;28;20270;-70
2022/12/02 08:38:35;;;;;;;53.33;27.80;;;;;;;8.56;62.17;97632.84;5037300;28;20195;-71
2022/12/02 08:41:00;;;;;;;48.57;24.07;;;;;;;8.51;61.63;97623.75;5034982;28;20211;-70
2022/12/02 08:43:26;;;;;;;49.63;24.93;;;;;;;8.53;62.30;97625.28;5035163;28;20192;-71
2022/12/02 08:45:51;;;;;;;50.43;25.20;;;;;;;8.52;62.55;97626.22;5028796;28;20216;-71
2022/12/02 08:48:17;;;;;;;49.43;25.03;;;;;;;8.57;62.27;97628.44;5026161;28;20226;-70
2022/12/02 08:50:42;;;;;;;50.33;26.43;;;;;;;8.62;62.33;97628.91;5032405;28;20751;-71
2022/12/02 08:53:08;;;;;;;49.87;25.37;;;;;;;8.69;62.11;97626.59;5017114;28;20199;-70
2022/12/02 08:55:33;;;;;;;42.87;22.53;;;;;;;8.65;61.85;97620.81;5031521;28;20752;-72
2022/12/02 08:57:59;;;;;;;41.10;20.83;;;;;;;8.62;61.99;97621.06;5027651;28;20183;-70
2022/12/02 09:00:24;;;;;;;38.00;20.40;;;;;;;8.55;61.11;97617.31;5018850;28;20179;-71
2022/12/02 09:02:50;;;;;;;39.40;20.77;;;;;;;8.45;62.10;97617.22;5019305;28;20188;-71
2022/12/02 09:05:15;;;;;;;37.43;20.03;;;;;;;8.49;62.10;97615.22;5022418;28;20184;-71
2022/12/02 09:07:41;;;;;;;35.83;19.83;;;;;;;8.43;62.35;97616.53;5018279;28;20208;-71
2022/12/02 09:10:09;;;;;;;35.17;18.50;;;;;;;8.42;62.05;97614.88;5014938;28;20683;-70
2022/12/02 09:12:34;;;;;;;39.57;20.90;;;;;;;8.39;61.93;97615.97;5022864;28;20311;-69
2022/12/02 09:15:00;;;;;;;37.30;20.10;;;;;;;8.32;62.27;97609.56;5028778;28;20480;-69
2022/12/02 09:17:25;;;;;;;34.57;19.60;;;;;;;8.39;62.27;97608.13;5020990;28;20231;-70
2022/12/02 09:19:51;;;;;;;36.13;19.37;;;;;;;8.41;62.72;97614.06;5016277;28;20180;-69
2022/12/02 09:22:16;;;;;;;39.10;20.87;;;;;;;8.43;62.78;97613.91;5018529;28;20258;-70
2022/12/02 09:24:42;;;;;;;32.23;18.27;;;;;;;8.48;62.43;97619.63;5016578;28;20196;-69
2022/12/02 09:27:07;;;;;;;39.70;20.10;;;;;;;8.51;62.23;97613.31;5041036;28;20296;-70
2022/12/02 09:29:33;;;;;;;32.63;18.67;;;;;;;8.48;61.96;97618.78;5020760;28;20184;-69
2022/12/02 09:31:59;;;;;;;31.43;18.37;;;;;;;8.50;62.03;97614.25;4983810;28;1360610;-69
2022/12/02 09:34:24;;;;;;;31.03;17.80;;;;;;;8.44;62.21;97613.78;5024537;28;20528;-70
2022/12/02 09:36:50;;;;;;;30.80;18.57;;;;;;;8.44;62.91;97611.16;5029361;28;20208;-70
2022/12/02 09:39:15;;;;;;;36.70;19.23;;;;;;;8.45;62.70;97615.44;5024376;28;20186;-69
2022/12/02 09:41:41;;;;;;;29.50;16.67;;;;;;;8.42;62.27;97615.72;5028317;28;20184;-69
2022/12/02 09:44:06;;;;;;;34.20;18.37;;;;;;;8.47;62.26;97607.47;5021622;28;20172;-71
2022/12/02 09:46:32;;;;;;;28.77;16.77;;;;;;;8.51;61.98;97610.69;5021661;28;20203;-72
2022/12/02 09:48:58;;;;;;;29.53;16.57;;;;;;;8.47;61.91;97612.72;5020098;28;20192;-68
2022/12/02 09:51:23;;;;;;;26.50;16.20;;;;;;;8.48;62.20;97613.56;5022976;28;20234;-71
2022/12/02 09:53:49;;;;;;;29.03;15.83;;;;;;;8.49;61.97;97610.84;5022760;28;20205;-70
2022/12/02 09:56:17;;;;;;;28.70;16.10;;;;;;;8.46;62.23;97606.66;5013829;28;20220;-71
2022/12/02 09:58:43;;;;;;;26.37;15.10;;;;;;;8.45;62.79;97602.38;5005391;28;20266;-70
2022/12/02 10:01:10;;;;;;;30.30;15.30;;;;;;;8.49;62.35;97604.75;5019850;28;20451;-70
2022/12/02 10:03:36;;;;;;;28.20;15.40;;;;;;;8.46;62.27;97596.19;5017317;28;20462;-69
2022/12/02 10:06:05;;;;;;;28.83;16.10;;;;;;;8.42;62.64;97597.44;5018430;28;20850;-68
2022/12/02 10:08:31;;;;;;;24.87;14.53;;;;;;;8.46;62.70;97601.41;5024902;28;21237;-69
2022/12/02 10:10:58;;;;;;;24.97;14.63;;;;;;;8.48;62.15;97595.28;5024040;28;20455;-68
2022/12/02 10:13:23;;;;;;;28.70;14.60;;;;;;;8.50;62.52;97596.81;5020926;28;20183;-69
2022/12/02 10:15:49;;;;;;;22.97;13.70;;;;;;;8.55;61.69;97594.63;5013276;28;20435;-68
2022/12/02 10:18:20;;;;;;;25.13;14.07;;;;;;;8.58;61.87;97588.31;5006643;28;20192;-71
2022/12/02 10:20:46;;;;;;;21.57;12.77;;;;;;;8.53;62.23;97591.31;5010535;28;20248;-69
2022/12/02 10:23:13;;;;;;;21.23;13.43;;;;;;;8.46;61.61;97590.97;5016790;28;20431;-68
2022/12/02 10:25:42;;;;;;;22.47;12.87;;;;;;;8.51;61.96;97592.41;5019782;28;20438;-71
2022/12/02 10:28:37;;;;;;;23.80;13.73;;;;;;;8.40;62.77;97583.66;5011134;28;20531;-70
2022/12/02 10:31:11;;;;;;;24.30;14.00;;;;;;;8.43;62.27;97586.03;5007453;28;20446;-69
2022/12/02 10:33:40;;;;;;;19.87;12.80;;;;;;;8.49;61.96;97581.25;5020580;28;20833;-69
2022/12/02 10:36:06;;;;;;;23.63;12.50;;;;;;;8.46;61.91;97572.69;5021212;28;21013;-69
2022/12/02 10:38:40;;;;;;;20.50;11.47;;;;;;;8.42;61.73;97570.47;5037038;28;20430;-71
2022/12/02 10:41:16;;;;;;;20.13;11.90;;;;;;;8.50;62.28;97575.06;5024605;28;20454;-71
2022/12/02 10:44:03;;;;;;;20.97;12.60;;;;;;;8.49;61.63;97563.81;5020452;28;20491;-70
2022/12/02 10:46:28;;;;;;;18.80;11.97;;;;;;;8.47;62.16;97570.91;5022682;28;20458;-72
2022/12/02 10:48:54;;;;;;;21.10;12.47;;;;;;;8.48;61.90;97566.53;5022440;28;21007;-71
2022/12/02 10:51:21;;;;;;;19.90;11.60;;;;;;;8.46;62.45;97561.41;5021517;28;20631;-71
2022/12/02 10:53:51;;;;;;;21.03;11.50;;;;;;;8.44;62.35;97560.72;5023169;28;20226;-71
2022/12/02 10:56:19;;;;;;;16.30;10.67;;;;;;;8.48;62.33;97562.16;5023724;28;20462;-72
2022/12/02 10:58:46;;;;;;;19.10;12.00;;;;;;;8.42;61.73;97563.47;5020085;28;20838;-72
2022/12/02 11:01:12;;;;;;;20.23;11.40;;;;;;;8.38;61.67;97556.03;5032078;28;20437;-70
2022/12/02 11:03:39;;;;;;;18.60;11.40;;;;;;;8.40;62.24;97554.94;5017417;28;20963;-71
2022/12/02 11:06:06;;;;;;;22.33;12.83;;;;;;;8.35;61.93;97561.50;5021830;28;20247;-71
2022/12/02 11:08:31;;;;;;;19.20;11.33;;;;;;;8.36;62.17;97550.91;5026051;28;20462;-70
2022/12/02 11:11:32;;;;;;;19.20;11.10;;;;;;;8.36;61.78;97548.31;5019881;28;21110;-69
2022/12/02 11:14:02;;;;;;;17.60;11.57;;;;;;;8.39;61.46;97547.22;4980593;28;20217;-71
2022/12/02 11:16:27;;;;;;;18.33;11.97;;;;;;;8.40;61.59;97544.47;5003203;28;20473;-70
2022/12/02 11:19:08;;;;;;;22.03;13.13;;;;;;;8.42;61.97;97545.19;5022547;28;20529;-70
2022/12/02 11:21:35;;;;;;;20.40;12.00;;;;;;;8.45;62.02;97534.44;5020356;28;20255;-70
2022/12/02 11:24:21;;;;;;;23.97;13.40;;;;;;;8.44;61.40;97539.81;5025560;28;20542;-71
2022/12/02 11:26:59;;;;;;;18.73;11.80;;;;;;;8.42;62.13;97539.97;5017473;28;20455;-70
2022/12/02 11:29:31;;;;;;;18.47;10.87;;;;;;;8.37;61.77;97534.28;5025103;28;20864;-70